Time;durP1;ratioP1;P1;durP2;ratioP2;P2;SDS_P1;SDS_P2;PMS_P1;PMS_P2;Temp;Humidity;BMP_temperature;BMP_pressure;BME280_temperature;BME280_humidity;BME280_pressure;Samples;Min_cycle;Max_cycle;Signal;HPM_P1;HPM_P2
2022/12/01 00:02:15;;;;;;;7.97;5.70;;;7.20;99.90;;;;;;5054243;28;20032;-79
2022/12/01 00:04:41;;;;;;;7.70;5.80;;;7.20;99.90;;;;;;5079327;28;20036;-78
2022/12/01 00:07:07;;;;;;;7.20;5.60;;;7.20;99.90;;;;;;5061665;28;20028;-80
2022/12/01 00:12:16;;;;;;;6.90;5.28;;;7.20;99.90;;;;;;5079371;28;20071;-79
2022/12/01 00:14:42;;;;;;;8.63;5.90;;;7.30;99.90;;;;;;5077913;28;20025;-78
2022/12/01 00:17:08;;;;;;;9.93;6.85;;;7.20;99.90;;;;;;5069774;28;20043;-79
2022/12/01 00:19:33;;;;;;;12.38;6.85;;;7.20;99.90;;;;;;5071093;28;20020;-78
2022/12/01 00:22:38;;;;;;;9.82;6.38;;;7.30;99.90;;;;;;5055022;28;20421;-81
2022/12/01 00:25:06;;;;;;;7.68;5.10;;;7.20;99.90;;;;;;5013214;28;20045;-80
2022/12/01 00:27:37;;;;;;;7.57;4.70;;;7.30;99.90;;;;;;5059308;28;20033;-81
2022/12/01 00:30:05;;;;;;;8.13;5.85;;;7.30;99.90;;;;;;5049851;28;20025;-80
2022/12/01 00:32:34;;;;;;;8.45;5.65;;;7.30;99.90;;;;;;5075283;28;20504;-79
2022/12/01 00:35:01;;;;;;;8.98;5.68;;;7.30;99.90;;;;;;5058652;28;20506;-80
2022/12/01 00:37:32;;;;;;;7.72;5.50;;;7.30;99.90;;;;;;5059080;28;20029;-80
2022/12/01 00:39:58;;;;;;;7.85;5.45;;;7.30;99.90;;;;;;5060425;28;20024;-82
2022/12/01 00:42:24;;;;;;;6.10;4.18;;;7.20;99.90;;;;;;5053488;28;20033;-81
2022/12/01 00:44:50;;;;;;;7.82;4.80;;;7.20;99.90;;;;;;5078309;28;20489;-81
2022/12/01 00:47:16;;;;;;;7.93;4.55;;;7.20;99.90;;;;;;5068647;28;20037;-81
2022/12/01 00:49:44;;;;;;;8.85;5.57;;;7.20;99.90;;;;;;5047162;28;20107;-81
2022/12/01 00:52:12;;;;;;;7.25;4.47;;;7.20;99.90;;;;;;5077974;28;20519;-81
2022/12/01 00:54:40;;;;;;;7.40;4.70;;;7.20;99.90;;;;;;5078337;28;20023;-81
2022/12/01 00:57:07;;;;;;;8.32;5.35;;;7.30;99.90;;;;;;5060741;28;20029;-81
2022/12/01 00:59:35;;;;;;;9.18;4.78;;;7.20;99.90;;;;;;5070868;28;20480;-81
2022/12/01 01:02:02;;;;;;;6.90;4.75;;;7.20;99.90;;;;;;5040598;28;20057;-81
2022/12/01 01:04:32;;;;;;;7.60;4.20;;;7.20;99.90;;;;;;5059543;28;20131;-81
2022/12/01 01:12:04;;;;;;;;;;;;;;;;;;;;;
2022/12/01 01:14:13;;;;;;;5.57;3.90;;;7.30;99.90;;;;;;4921102;28;20069;-81
2022/12/01 01:16:39;;;;;;;5.60;3.83;;;7.30;99.90;;;;;;4960368;28;20058;-80
2022/12/01 01:19:04;;;;;;;8.13;4.90;;;7.20;99.90;;;;;;5045295;28;20045;-80
2022/12/01 01:21:30;;;;;;;7.03;4.95;;;7.20;99.90;;;;;;5064553;28;20070;-80
2022/12/01 01:23:56;;;;;;;6.53;3.92;;;7.30;99.90;;;;;;5060333;28;20025;-80
2022/12/01 01:26:30;;;;;;;6.70;4.35;;;7.20;99.90;;;;;;5077907;28;20017;-80
2022/12/01 01:28:57;;;;;;;8.15;5.60;;;7.20;99.90;;;;;;5051348;28;20080;-80
2022/12/01 04:58:47;;;;;;;;;;;;;;;;;;;;;
2022/12/01 05:01:50;;;;;;;;;;;;;;;;;;;;;
2022/12/01 05:04:47;;;;;;;;;;;;;;;;;;;;;
2022/12/01 05:07:30;;;;;;;5.50;3.65;;;5.20;99.90;;;;;;5038765;28;20076;-82
2022/12/01 05:10:05;;;;;;;5.85;3.33;;;5.20;99.90;;;;;;5040956;28;20078;-81
2022/12/01 05:12:36;;;;;;;5.63;3.58;;;5.10;99.90;;;;;;5026091;28;20025;-81
2022/12/01 05:15:05;;;;;;;5.03;3.45;;;5.10;99.90;;;;;;5025659;28;20033;-81
2022/12/01 05:17:38;;;;;;;5.32;3.67;;;5.10;99.90;;;;;;5020658;28;20025;-81
2022/12/01 05:22:51;;;;;;;5.93;3.60;;;5.10;99.90;;;;;;5038595;28;20124;-83
2022/12/01 05:25:27;;;;;;;;;;;;;;;;;;;;;
2022/12/01 05:32:01;;;;;;;;;;;;;;;;;;;;;
2022/12/01 05:42:03;;;;;;;;;;;;;;;;;;;;;
2022/12/01 05:48:07;;;;;;;4.22;2.50;;;4.70;99.90;;;;;;5034756;28;20047;-83
2022/12/01 06:00:54;;;;;;;4.43;2.60;;;4.60;99.90;;;;;;4927099;29;20024;-83
2022/12/01 06:22:32;;;;;;;4.10;3.17;;;4.40;99.90;;;;;;5049534;28;20084;-84
2022/12/01 06:25:14;;;;;;;;;;;;;;;;;;;;;
2022/12/01 06:28:16;;;;;;;5.43;3.08;;;4.30;99.90;;;;;;5040676;28;20025;-84
2022/12/01 06:30:42;;;;;;;5.22;3.30;;;4.30;99.90;;;;;;5036983;28;20029;-81
2022/12/01 06:33:07;;;;;;;4.90;3.20;;;4.30;99.90;;;;;;5048046;28;20359;-79
2022/12/01 06:35:34;;;;;;;5.20;3.33;;;4.30;99.90;;;;;;5049005;28;20029;-78
2022/12/01 06:38:00;;;;;;;5.03;3.42;;;4.30;99.90;;;;;;5039774;28;20029;-78
2022/12/01 06:40:26;;;;;;;5.78;3.50;;;4.30;99.90;;;;;;5046289;28;20035;-83
2022/12/01 06:42:51;;;;;;;5.05;3.72;;;4.30;99.90;;;;;;5033068;28;20040;-83
2022/12/01 06:45:17;;;;;;;5.85;3.70;;;4.30;99.90;;;;;;5049491;28;20016;-81
2022/12/01 06:47:43;;;;;;;6.63;3.50;;;4.30;99.90;;;;;;5049388;28;20029;-78
2022/12/01 06:50:20;;;;;;;6.28;3.80;;;4.30;99.90;;;;;;5047505;28;20076;-87
2022/12/01 06:53:48;;;;;;;5.28;3.33;;;4.30;99.90;;;;;;5042793;28;20022;-89
2022/12/01 07:06:59;;;;;;;4.85;3.30;;;4.20;99.90;;;;;;4961165;28;20029;-87
2022/12/01 07:09:35;;;;;;;4.68;2.83;;;4.20;99.90;;;;;;4937326;29;20041;-87
2022/12/01 07:26:17;;;;;;;;;;;;;;;;;;;;;
2022/12/01 07:40:17;;;;;;;;;;;;;;;;;;;;;
2022/12/01 09:58:13;;;;;;;;;;;;;;;;;;;;;
2022/12/01 10:18:57;;;;;;;6.97;4.28;;;5.70;99.90;;;;;;6012662;23;20007;-68
2022/12/01 10:21:41;;;;;;;5.30;3.47;;;5.70;99.90;;;;;;6145622;22;20006;-69
2022/12/01 10:24:24;;;;;;;8.10;4.15;;;5.70;99.90;;;;;;6282433;22;19996;-70
2022/12/01 10:27:00;;;;;;;6.78;4.05;;;5.70;99.90;;;;;;6282451;22;20023;-68
2022/12/01 10:29:48;;;;;;;8.60;4.97;;;5.70;99.90;;;;;;6255184;22;20004;-70
2022/12/01 10:32:18;;;;;;;7.20;4.47;;;5.60;99.90;;;;;;6281579;22;20087;-69
2022/12/01 10:34:46;;;;;;;8.43;4.90;;;5.60;99.90;;;;;;6282120;22;20412;-74
2022/12/01 10:37:24;;;;;;;8.48;4.88;;;5.60;99.90;;;;;;6254265;22;20023;-74
2022/12/01 10:39:52;;;;;;;5.97;3.75;;;5.50;99.90;;;;;;6281848;22;20006;-74
2022/12/01 10:42:33;;;;;;;6.40;4.15;;;5.50;99.90;;;;;;6282127;22;20429;-74
2022/12/01 10:45:02;;;;;;;5.10;3.05;;;5.50;99.90;;;;;;6282085;22;20006;-72
2022/12/01 10:47:27;;;;;;;4.50;3.03;;;5.50;99.90;;;;;;6281667;22;19999;-73
2022/12/01 10:49:54;;;;;;;5.38;3.50;;;5.50;99.90;;;;;;6282076;22;20369;-73
2022/12/01 10:52:36;;;;;;;5.68;3.03;;;5.60;99.90;;;;;;6254615;22;20066;-73
2022/12/01 10:55:26;;;;;;;4.90;2.97;;;5.60;99.90;;;;;;6281936;22;19996;-72
2022/12/01 10:57:55;;;;;;;6.57;2.92;;;5.60;99.90;;;;;;6234403;22;20094;-72
2022/12/01 11:00:36;;;;;;;6.32;3.50;;;5.60;99.90;;;;;;6281821;22;19999;-71
2022/12/01 11:03:03;;;;;;;6.65;3.47;;;5.60;99.90;;;;;;6281110;22;20000;-73
2022/12/01 11:05:37;;;;;;;5.85;2.78;;;5.80;99.90;;;;;;6254463;22;20003;-68
2022/12/01 11:08:04;;;;;;;6.65;2.75;;;5.90;99.90;;;;;;6281928;22;20030;-71
2022/12/01 11:10:32;;;;;;;5.80;3.03;;;5.90;99.90;;;;;;6281883;22;20003;-69
2022/12/01 11:13:21;;;;;;;5.07;2.92;;;6.00;99.90;;;;;;6254475;22;20073;-66
2022/12/01 11:15:53;;;;;;;7.30;3.28;;;6.00;99.90;;;;;;6254666;22;20031;-68
2022/12/01 11:18:23;;;;;;;5.43;2.78;;;6.00;99.90;;;;;;6283794;22;19999;-67
2022/12/01 11:21:14;;;;;;;6.03;3.33;;;6.10;99.90;;;;;;6312780;22;20003;-68
2022/12/01 11:23:51;;;;;;;4.78;2.70;;;6.10;99.90;;;;;;6312734;22;19999;-68
2022/12/01 11:26:26;;;;;;;7.07;4.18;;;6.10;99.90;;;;;;6312820;22;20056;-67
2022/12/01 11:28:57;;;;;;;4.90;2.67;;;6.10;99.90;;;;;;6311256;22;20003;-71
2022/12/01 11:31:44;;;;;;;6.13;3.25;;;6.20;99.90;;;;;;6284921;22;20007;-70
2022/12/01 11:34:22;;;;;;;7.32;3.97;;;6.20;99.90;;;;;;6311880;22;20007;-68
2022/12/01 11:36:52;;;;;;;6.55;3.50;;;6.20;99.90;;;;;;6312398;22;20552;-67
2022/12/01 11:39:27;;;;;;;6.50;3.60;;;6.30;99.90;;;;;;6312151;22;20380;-69
2022/12/01 11:42:05;;;;;;;5.93;3.08;;;6.30;99.90;;;;;;6312459;22;19999;-70
2022/12/01 11:44:33;;;;;;;10.60;4.22;;;6.30;99.90;;;;;;6313396;22;19999;-72
2022/12/01 11:47:21;;;;;;;7.25;3.70;;;6.30;99.90;;;;;;6286200;22;20031;-70
2022/12/01 11:49:52;;;;;;;7.38;3.60;;;6.20;99.90;;;;;;6312301;22;19999;-68
2022/12/01 11:52:26;;;;;;;5.90;3.33;;;6.20;99.90;;;;;;6312303;22;20006;-69
2022/12/01 11:55:15;;;;;;;8.02;3.47;;;6.20;99.90;;;;;;6284601;22;20086;-67
2022/12/01 11:57:48;;;;;;;8.75;4.55;;;6.30;99.90;;;;;;6299820;22;20015;-69
2022/12/01 12:00:15;;;;;;;7.00;3.40;;;6.30;99.90;;;;;;6343304;22;20006;-70
2022/12/01 12:03:06;;;;;;;9.55;4.65;;;6.30;99.90;;;;;;6343307;22;19998;-70
2022/12/01 12:05:57;;;;;;;10.18;4.88;;;6.30;99.90;;;;;;6343097;22;20013;-70
2022/12/01 12:08:56;;;;;;;10.13;4.20;;;6.40;99.90;;;;;;6315431;22;20003;-70
2022/12/01 12:11:37;;;;;;;5.65;3.15;;;6.40;99.90;;;;;;6342375;22;20006;-69
2022/12/01 12:14:11;;;;;;;8.07;3.80;;;6.40;99.90;;;;;;6342349;22;19995;-70
2022/12/01 12:17:13;;;;;;;8.20;4.28;;;6.50;99.90;;;;;;6314884;22;20026;-70
2022/12/01 12:20:16;;;;;;;10.20;4.82;;;6.50;99.90;;;;;;6261870;22;19999;-72
2022/12/01 12:22:59;;;;;;;9.82;4.65;;;6.50;99.90;;;;;;6342718;22;20034;-72
2022/12/01 12:25:43;;;;;;;7.85;3.85;;;6.60;99.90;;;;;;6342295;22;20003;-69
2022/12/01 12:28:14;;;;;;;7.13;3.75;;;6.80;99.90;;;;;;6343321;22;20331;-70
2022/12/01 12:31:02;;;;;;;11.93;5.65;;;6.90;99.90;;;;;;6315282;22;20002;-70
2022/12/01 12:34:10;;;;;;;12.40;6.20;;;6.90;99.90;;;;;;6343130;22;20005;-70
2022/12/01 12:36:50;;;;;;;12.52;5.57;;;7.00;99.90;;;;;;6342901;22;20001;-70
2022/12/01 12:39:41;;;;;;;10.15;5.60;;;6.90;99.90;;;;;;6343711;22;19995;-70
2022/12/01 12:42:38;;;;;;;10.23;4.93;;;6.90;99.90;;;;;;6343648;22;20074;-72
2022/12/01 12:45:10;;;;;;;11.77;5.28;;;6.90;99.90;;;;;;6312397;22;19999;-71
2022/12/01 12:47:55;;;;;;;10.30;5.15;;;6.80;99.90;;;;;;6342798;22;20025;-73
2022/12/01 12:50:33;;;;;;;30.35;14.95;;;6.80;99.90;;;;;;6341605;22;20678;-72
2022/12/01 12:53:05;;;;;;;25.30;11.63;;;6.80;99.90;;;;;;6342965;22;20010;-71
2022/12/01 12:55:42;;;;;;;21.88;9.55;;;6.90;99.90;;;;;;6342955;22;20332;-72
2022/12/01 12:58:12;;;;;;;18.45;9.02;;;6.90;99.90;;;;;;6343213;22;20022;-71
2022/12/01 13:00:49;;;;;;;17.83;8.70;;;6.90;99.90;;;;;;6344295;22;20021;-71
2022/12/01 13:03:36;;;;;;;15.63;8.00;;;6.90;99.90;;;;;;6345096;22;20054;-73
2022/12/01 13:06:09;;;;;;;14.63;6.32;;;6.90;99.90;;;;;;6316793;22;20010;-74
2022/12/01 13:08:40;;;;;;;16.83;7.55;;;6.90;99.90;;;;;;6341603;22;20070;-73
2022/12/01 13:11:28;;;;;;;12.73;6.45;;;6.90;99.90;;;;;;6343678;22;20002;-73
2022/12/01 13:14:19;;;;;;;14.45;6.53;;;6.90;99.90;;;;;;6316577;22;20010;-73
2022/12/01 13:16:48;;;;;;;11.90;6.03;;;7.00;99.90;;;;;;6343988;22;20020;-74
2022/12/01 13:19:31;;;;;;;10.55;6.15;;;7.00;99.90;;;;;;6343946;22;20435;-73
2022/12/01 13:21:58;;;;;;;15.85;7.47;;;7.10;99.90;;;;;;6344037;22;20052;-72
2022/12/01 13:24:28;;;;;;;14.32;6.82;;;7.00;99.90;;;;;;6343050;22;20011;-74
2022/12/01 13:27:04;;;;;;;12.50;6.68;;;7.00;99.90;;;;;;6315754;22;20009;-74
2022/12/01 13:29:34;;;;;;;10.73;5.90;;;7.00;99.90;;;;;;6316060;22;20029;-77
2022/12/01 13:32:00;;;;;;;11.85;6.40;;;7.00;99.90;;;;;;6316170;22;20339;-77
2022/12/01 13:34:32;;;;;;;14.13;7.03;;;7.10;99.90;;;;;;6316021;22;19999;-76
2022/12/01 13:36:58;;;;;;;11.90;6.13;;;7.10;99.90;;;;;;6316479;22;20007;-76
2022/12/01 13:39:27;;;;;;;14.00;7.03;;;7.20;99.90;;;;;;6316395;22;20002;-77
2022/12/01 13:42:05;;;;;;;15.63;7.30;;;7.20;99.90;;;;;;6316594;22;20312;-77
2022/12/01 13:44:44;;;;;;;14.13;7.32;;;7.20;99.90;;;;;;6344100;22;20010;-77
2022/12/01 13:47:10;;;;;;;11.95;6.13;;;7.30;99.90;;;;;;6343875;22;20010;-77
2022/12/01 13:49:41;;;;;;;17.42;7.97;;;7.30;99.90;;;;;;6343182;22;20002;-77
2022/12/01 13:52:22;;;;;;;15.57;8.18;;;7.30;99.90;;;;;;6316348;22;20060;-76
2022/12/01 13:55:12;;;;;;;12.68;6.95;;;7.40;99.90;;;;;;6315998;22;20056;-77
2022/12/01 13:57:46;;;;;;;12.23;6.90;;;7.40;99.90;;;;;;6315669;22;20015;-77
2022/12/01 14:00:33;;;;;;;12.63;6.28;;;7.40;99.90;;;;;;6343275;22;20010;-77
2022/12/01 14:03:11;;;;;;;15.48;6.55;;;7.50;99.90;;;;;;6343630;22;20003;-76
2022/12/01 14:05:52;;;;;;;9.90;4.78;;;7.50;99.90;;;;;;6343600;22;20009;-78
2022/12/01 14:08:26;;;;;;;12.70;6.57;;;7.60;99.90;;;;;;6342531;22;20350;-75
2022/12/01 14:11:05;;;;;;;10.98;6.00;;;7.60;99.90;;;;;;6314160;22;20014;-77
2022/12/01 14:13:41;;;;;;;13.30;6.68;;;7.60;99.90;;;;;;6343528;22;20070;-77
2022/12/01 14:16:08;;;;;;;12.75;6.95;;;7.70;99.90;;;;;;6342344;22;20002;-76
2022/12/01 14:18:37;;;;;;;15.45;7.63;;;7.70;99.90;;;;;;6343171;22;20034;-76
2022/12/01 14:21:09;;;;;;;13.23;7.22;;;7.70;99.90;;;;;;6313265;22;20013;-75
2022/12/01 14:23:56;;;;;;;13.45;6.78;;;7.70;99.90;;;;;;6342718;22;20010;-76
2022/12/01 14:26:22;;;;;;;13.50;6.68;;;7.70;99.90;;;;;;6342346;22;20052;-74
2022/12/01 14:29:00;;;;;;;11.88;6.70;;;7.80;99.90;;;;;;6313438;22;20002;-74
2022/12/01 14:31:31;;;;;;;15.00;7.93;;;7.80;99.90;;;;;;6314717;22;20010;-74
2022/12/01 14:34:01;;;;;;;11.15;6.38;;;7.80;99.90;;;;;;6341346;22;20005;-74
2022/12/01 14:36:48;;;;;;;13.82;6.88;;;7.80;99.90;;;;;;6342282;22;20003;-74
2022/12/01 14:39:21;;;;;;;11.77;6.30;;;7.90;99.90;;;;;;6342294;22;20074;-75
2022/12/01 14:41:52;;;;;;;12.18;6.72;;;7.90;99.90;;;;;;6315873;22;20403;-74
2022/12/01 14:44:34;;;;;;;12.15;6.07;;;7.90;99.90;;;;;;6315886;22;20013;-73
2022/12/01 14:47:11;;;;;;;10.63;6.05;;;7.90;99.90;;;;;;6342785;22;20439;-76
2022/12/01 14:49:43;;;;;;;12.35;6.20;;;7.90;99.90;;;;;;6342791;22;20069;-74
2022/12/01 14:52:28;;;;;;;12.70;6.20;;;7.90;99.90;;;;;;6315414;22;20312;-74
2022/12/01 14:54:59;;;;;;;11.10;5.32;;;7.90;99.90;;;;;;6343155;22;20741;-70
2022/12/01 14:57:33;;;;;;;10.65;5.47;;;8.00;99.90;;;;;;6315475;22;20018;-74
2022/12/01 15:00:11;;;;;;;8.95;5.25;;;8.00;99.90;;;;;;6343304;22;20037;-77
2022/12/01 15:02:51;;;;;;;10.10;5.75;;;8.00;99.90;;;;;;6343067;22;20007;-74
2022/12/01 15:05:19;;;;;;;13.93;7.47;;;8.00;99.90;;;;;;6343149;22;20056;-72
2022/12/01 15:07:48;;;;;;;10.95;6.28;;;8.00;99.90;;;;;;6342921;22;20007;-74
2022/12/01 15:10:23;;;;;;;10.02;5.70;;;8.00;99.90;;;;;;6343007;22;20007;-73
2022/12/01 15:12:50;;;;;;;10.55;5.72;;;8.00;99.90;;;;;;6343079;22;20021;-75
2022/12/01 15:15:19;;;;;;;11.43;5.53;;;8.00;99.90;;;;;;6343045;22;19999;-75
2022/12/01 15:17:44;;;;;;;8.43;4.57;;;8.00;99.90;;;;;;6342797;22;20009;-73
2022/12/01 15:20:30;;;;;;;7.68;4.45;;;8.00;99.90;;;;;;6342967;22;20074;-76
2022/12/01 15:22:57;;;;;;;7.68;4.70;;;8.00;99.90;;;;;;6342926;22;20014;-76
2022/12/01 15:25:26;;;;;;;9.75;4.93;;;8.00;99.90;;;;;;6342979;22;20055;-76
2022/12/01 15:28:11;;;;;;;9.18;4.30;;;8.00;99.90;;;;;;6315441;22;20003;-76
2022/12/01 15:30:38;;;;;;;9.07;4.80;;;8.10;99.90;;;;;;6342623;22;20013;-74
2022/12/01 15:33:05;;;;;;;10.05;5.13;;;8.10;99.90;;;;;;6314854;22;20010;-74
2022/12/01 15:35:31;;;;;;;10.40;5.00;;;8.10;99.90;;;;;;6343111;22;20070;-72
2022/12/01 15:37:58;;;;;;;8.65;4.45;;;8.00;99.90;;;;;;6342868;22;20051;-74
2022/12/01 15:40:24;;;;;;;10.02;5.63;;;8.00;99.90;;;;;;6343199;22;20037;-72
2022/12/01 15:43:06;;;;;;;9.38;4.53;;;8.00;99.90;;;;;;6342660;22;20027;-72
2022/12/01 15:45:49;;;;;;;8.73;4.82;;;8.00;99.90;;;;;;6343174;22;19999;-71
2022/12/01 15:48:23;;;;;;;7.63;4.18;;;8.00;99.90;;;;;;6342642;22;20007;-73
2022/12/01 15:51:00;;;;;;;6.57;3.95;;;8.00;99.90;;;;;;6314825;22;20289;-73
2022/12/01 15:53:31;;;;;;;8.07;4.20;;;8.00;99.90;;;;;;6342907;22;19999;-73
2022/12/01 15:55:58;;;;;;;7.43;4.00;;;8.00;99.90;;;;;;6342388;22;20010;-72
2022/12/01 15:58:30;;;;;;;6.97;3.75;;;7.90;99.90;;;;;;6314856;22;20098;-72
2022/12/01 16:01:02;;;;;;;7.82;4.18;;;7.90;99.90;;;;;;6332824;22;20029;-76
2022/12/01 16:03:28;;;;;;;7.88;4.30;;;7.90;99.90;;;;;;6342468;22;20026;-75
2022/12/01 16:05:54;;;;;;;7.15;3.90;;;7.80;99.90;;;;;;6342949;22;20027;-73
2022/12/01 16:08:23;;;;;;;7.70;4.13;;;7.80;99.90;;;;;;6342699;22;20002;-73
2022/12/01 16:11:13;;;;;;;6.18;3.55;;;7.80;99.90;;;;;;6342792;22;20003;-73
2022/12/01 16:14:03;;;;;;;5.75;3.55;;;7.70;99.90;;;;;;6314917;22;20007;-73
2022/12/01 16:16:39;;;;;;;5.60;3.50;;;7.70;99.90;;;;;;6323720;22;20078;-72
2022/12/01 16:19:07;;;;;;;5.55;2.95;;;7.70;99.90;;;;;;6343089;22;20007;-73
2022/12/01 16:21:47;;;;;;;4.78;3.13;;;7.60;99.90;;;;;;6343013;22;19999;-73
2022/12/01 16:24:34;;;;;;;5.20;3.00;;;7.60;99.90;;;;;;6343576;22;19999;-71
2022/12/01 16:27:28;;;;;;;4.15;2.75;;;7.60;99.90;;;;;;6341480;22;20003;-72
2022/12/01 16:30:00;;;;;;;3.78;2.17;;;7.60;99.90;;;;;;6310871;22;20090;-72
2022/12/01 16:32:33;;;;;;;3.77;2.40;;;7.50;99.90;;;;;;6343114;22;19999;-72
2022/12/01 16:34:59;;;;;;;4.40;2.72;;;7.50;99.90;;;;;;6344764;22;19999;-74
2022/12/01 16:37:25;;;;;;;3.72;2.42;;;7.40;99.90;;;;;;6345789;22;19999;-75
2022/12/01 16:39:51;;;;;;;5.07;2.20;;;7.40;99.90;;;;;;6345595;22;20010;-73
2022/12/01 16:42:20;;;;;;;2.58;1.80;;;7.40;99.90;;;;;;6345567;22;19995;-73
2022/12/01 16:44:47;;;;;;;4.38;2.35;;;7.40;99.90;;;;;;6345492;22;20002;-73
2022/12/01 16:47:23;;;;;;;3.65;2.05;;;7.40;99.90;;;;;;6317498;22;20006;-74
2022/12/01 16:49:50;;;;;;;3.63;2.20;;;7.30;99.90;;;;;;6345369;22;19995;-75
2022/12/01 16:52:16;;;;;;;3.75;2.33;;;7.30;99.90;;;;;;6317324;22;19998;-76
2022/12/01 16:54:41;;;;;;;2.90;1.52;;;7.30;99.90;;;;;;6317756;22;20392;-72
2022/12/01 16:57:07;;;;;;;4.00;2.45;;;7.30;99.90;;;;;;6317595;22;20488;-71
2022/12/01 16:59:33;;;;;;;4.05;2.50;;;7.20;99.90;;;;;;6345202;22;20039;-71
2022/12/01 17:02:19;;;;;;;3.30;2.20;;;7.20;99.90;;;;;;6317500;22;20082;-81
2022/12/01 17:04:45;;;;;;;3.97;2.25;;;7.20;99.90;;;;;;6317451;22;20007;-79
2022/12/01 17:07:11;;;;;;;4.22;2.70;;;7.20;99.90;;;;;;6319259;22;20078;-82
2022/12/01 17:09:55;;;;;;;3.72;2.33;;;7.20;99.90;;;;;;6317634;22;20005;-86
2022/12/01 17:12:29;;;;;;;3.80;2.30;;;7.20;99.90;;;;;;6343906;22;19995;-86
2022/12/01 17:14:57;;;;;;;4.90;2.63;;;7.10;99.90;;;;;;6343011;22;20029;-85
2022/12/01 17:17:27;;;;;;;4.65;2.75;;;7.00;99.90;;;;;;6316623;22;20003;-81
2022/12/01 17:19:55;;;;;;;4.18;2.47;;;7.00;99.90;;;;;;6343659;22;20504;-86
2022/12/01 17:22:21;;;;;;;3.85;2.55;;;7.00;99.90;;;;;;6344685;22;19999;-83
2022/12/01 17:24:47;;;;;;;4.03;2.60;;;6.90;99.90;;;;;;6343959;22;20002;-79
2022/12/01 17:27:12;;;;;;;3.78;2.42;;;6.90;99.90;;;;;;6344270;22;20075;-82
2022/12/01 17:29:41;;;;;;;3.58;2.13;;;6.90;99.90;;;;;;6316877;22;20025;-82
2022/12/01 17:32:09;;;;;;;3.88;2.63;;;6.90;99.90;;;;;;6316640;22;20089;-84
2022/12/01 17:34:35;;;;;;;4.50;2.83;;;6.80;99.90;;;;;;6344751;22;20006;-85
2022/12/01 17:37:04;;;;;;;3.60;2.28;;;6.80;99.90;;;;;;6316684;22;20026;-86
2022/12/01 17:39:33;;;;;;;4.03;2.60;;;6.80;99.90;;;;;;6316365;22;20006;-84
2022/12/01 17:42:06;;;;;;;4.40;2.47;;;6.80;99.90;;;;;;6344236;22;20488;-88
2022/12/01 17:44:31;;;;;;;4.45;2.45;;;6.70;99.90;;;;;;6316252;22;20339;-78
2022/12/01 17:47:03;;;;;;;4.53;2.92;;;6.70;99.90;;;;;;6342009;22;20006;-82
2022/12/01 17:55:47;;;;;;;5.20;2.90;;;6.60;99.90;;;;;;6162279;23;20028;-87
2022/12/01 17:58:13;;;;;;;4.22;2.50;;;6.60;99.90;;;;;;6346459;22;20050;-82
2022/12/01 18:00:39;;;;;;;4.32;2.85;;;6.60;99.90;;;;;;6344822;22;20332;-78
2022/12/01 18:03:06;;;;;;;4.70;3.17;;;6.60;99.90;;;;;;6316323;22;20003;-79
2022/12/01 18:05:35;;;;;;;4.38;2.97;;;6.50;99.90;;;;;;6313190;22;20013;-86
2022/12/01 18:08:00;;;;;;;3.92;2.60;;;6.50;99.90;;;;;;6316059;22;20010;-79
2022/12/01 18:43:19;;;;;;;4.07;2.53;;;6.30;99.90;;;;;;6310987;22;20546;-82
2022/12/01 18:46:14;;;;;;;4.45;2.95;;;6.30;99.90;;;;;;6310085;22;20137;-79
2022/12/01 18:49:10;;;;;;;;;;;;;;;;;;;;;
2022/12/01 18:51:58;;;;;;;6.00;3.72;;;6.20;99.90;;;;;;6312766;22;20030;-82
2022/12/01 19:04:20;;;;;;;5.25;3.15;;;6.20;99.90;;;;;;6187854;23;20012;-83
2022/12/01 19:10:51;;;;;;;8.02;4.20;;;6.00;99.90;;;;;;6188981;23;20421;-89
2022/12/01 19:13:51;;;;;;;6.03;3.67;;;6.00;99.90;;;;;;6188970;23;20016;-88
2022/12/01 19:17:02;;;;;;;6.15;4.35;;;5.90;99.90;;;;;;6189103;23;20315;-89
2022/12/01 19:19:55;;;;;;;6.28;4.18;;;5.90;99.90;;;;;;6163635;23;20461;-91
2022/12/01 19:22:26;;;;;;;7.40;4.32;;;5.80;99.90;;;;;;6163161;23;20001;-86
2022/12/01 19:25:36;;;;;;;9.05;4.65;;;5.80;99.90;;;;;;6230583;22;20003;-86
2022/12/01 19:28:02;;;;;;;8.07;4.60;;;5.80;99.90;;;;;;6293277;22;20011;-85
2022/12/01 19:30:28;;;;;;;9.30;4.43;;;5.80;99.90;;;;;;6341881;22;20002;-85
2022/12/01 19:33:46;;;;;;;7.88;4.88;;;5.80;99.90;;;;;;6341577;22;20003;-90
2022/12/01 19:36:17;;;;;;;7.88;4.25;;;5.80;99.90;;;;;;6343478;22;20048;-82
2022/12/01 19:38:44;;;;;;;9.30;5.32;;;5.80;99.90;;;;;;6343894;22;19994;-86
2022/12/01 19:41:24;;;;;;;6.82;4.13;;;5.70;99.90;;;;;;6342479;22;20098;-86
2022/12/01 19:43:56;;;;;;;8.23;4.68;;;5.70;99.90;;;;;;6340830;22;20013;-85
2022/12/01 19:49:48;;;;;;;7.80;4.43;;;5.70;99.90;;;;;;6305876;22;20002;-82
2022/12/01 19:52:23;;;;;;;9.88;4.90;;;5.70;99.90;;;;;;6337737;22;20496;-88
2022/12/01 19:54:52;;;;;;;9.02;4.90;;;5.60;99.90;;;;;;6337225;22;20104;-92
2022/12/01 19:57:27;;;;;;;8.10;4.80;;;5.70;99.90;;;;;;6343162;22;20003;-84
2022/12/01 19:59:54;;;;;;;8.25;4.82;;;5.60;99.90;;;;;;6342448;22;20082;-81
2022/12/01 20:02:21;;;;;;;9.05;5.50;;;5.70;99.90;;;;;;6342201;22;19999;-77
2022/12/01 20:04:47;;;;;;;9.90;5.72;;;5.60;99.90;;;;;;6342695;22;20492;-78
2022/12/01 20:07:13;;;;;;;8.60;4.97;;;5.60;99.90;;;;;;6340049;22;20003;-83
2022/12/01 20:13:15;;;;;;;8.50;4.80;;;5.60;99.90;;;;;;6343385;22;20075;-85
2022/12/01 20:20:18;;;;;;;;;;;;;;;;;;;;;
2022/12/01 20:22:44;;;;;;;6.75;4.57;;;5.60;99.90;;;;;;6214367;23;20084;-86
2022/12/01 20:25:09;;;;;;;8.07;4.60;;;5.50;99.90;;;;;;6216943;23;20005;-82
2022/12/01 20:27:35;;;;;;;10.07;5.47;;;5.50;99.90;;;;;;6221002;23;20004;-77
2022/12/01 20:30:01;;;;;;;8.63;5.30;;;5.40;99.90;;;;;;6316584;22;20148;-83
2022/12/01 20:32:27;;;;;;;8.82;5.65;;;5.50;99.90;;;;;;6340997;22;20503;-80
2022/12/01 20:34:52;;;;;;;9.60;5.65;;;5.50;99.90;;;;;;6342415;22;20312;-79
2022/12/01 20:37:18;;;;;;;10.25;6.00;;;5.50;99.90;;;;;;6342382;22;19999;-78
2022/12/01 20:39:43;;;;;;;9.88;5.32;;;5.50;99.90;;;;;;6341245;22;20003;-79
2022/12/01 20:42:10;;;;;;;9.45;5.75;;;5.50;99.90;;;;;;6342584;22;19998;-81
2022/12/01 20:44:36;;;;;;;9.10;5.95;;;5.50;99.90;;;;;;6342617;22;20003;-78
2022/12/01 20:47:03;;;;;;;9.45;5.70;;;5.50;99.90;;;;;;6342338;22;20027;-77
2022/12/01 20:49:28;;;;;;;10.35;5.78;;;5.40;99.90;;;;;;6341471;22;20002;-78
2022/12/01 20:52:26;;;;;;;10.13;5.85;;;5.50;99.90;;;;;;6343162;22;20386;-84
2022/12/01 20:54:51;;;;;;;10.45;6.25;;;5.50;99.90;;;;;;6315236;22;20007;-77
2022/12/01 20:57:17;;;;;;;12.43;6.95;;;5.50;99.90;;;;;;6340584;22;20048;-80
2022/12/01 20:59:45;;;;;;;11.70;6.43;;;5.40;99.90;;;;;;6342517;22;20003;-80
2022/12/01 21:02:16;;;;;;;11.25;6.13;;;5.40;99.90;;;;;;6341799;22;19999;-84
2022/12/01 21:04:57;;;;;;;12.82;6.85;;;5.40;99.90;;;;;;6342360;22;19998;-85
2022/12/01 21:07:43;;;;;;;11.48;6.00;;;5.40;99.90;;;;;;6341423;22;20006;-86
2022/12/01 21:10:09;;;;;;;9.30;5.70;;;5.40;99.90;;;;;;6341741;22;19999;-81
2022/12/01 21:15:30;;;;;;;9.40;5.38;;;5.30;99.90;;;;;;6340587;22;20128;-81
2022/12/01 21:17:59;;;;;;;9.48;5.20;;;5.30;99.90;;;;;;6339689;22;19999;-80
2022/12/01 21:20:39;;;;;;;10.52;5.28;;;5.30;99.90;;;;;;6340628;22;20034;-78
2022/12/01 21:23:13;;;;;;;9.02;5.57;;;5.30;99.90;;;;;;6341216;22;20017;-78
2022/12/01 21:25:40;;;;;;;10.15;5.85;;;5.30;99.90;;;;;;6341271;22;20424;-79
2022/12/01 21:28:17;;;;;;;12.73;7.05;;;5.20;99.90;;;;;;6335122;22;20030;-78
2022/12/01 21:30:42;;;;;;;9.52;5.63;;;5.20;99.90;;;;;;6285343;22;20454;-78
2022/12/01 21:33:31;;;;;;;10.57;5.60;;;5.20;99.90;;;;;;6284927;22;20003;-80
2022/12/01 21:35:59;;;;;;;10.48;6.20;;;5.10;99.90;;;;;;6313263;22;20335;-79
2022/12/01 21:38:25;;;;;;;9.05;5.53;;;5.10;99.90;;;;;;6285869;22;20323;-78
2022/12/01 21:41:12;;;;;;;10.50;5.50;;;5.10;99.90;;;;;;6286086;22;20031;-79
2022/12/01 21:43:37;;;;;;;8.70;4.80;;;5.10;99.90;;;;;;6312015;22;20003;-80
2022/12/01 21:46:12;;;;;;;9.85;5.85;;;5.10;99.90;;;;;;6312010;22;20052;-81
2022/12/01 21:48:38;;;;;;;11.27;6.40;;;5.10;99.90;;;;;;6312437;22;20004;-80
2022/12/01 21:51:22;;;;;;;11.48;6.07;;;5.00;99.90;;;;;;6312640;22;20088;-79
2022/12/01 21:53:53;;;;;;;10.00;6.15;;;5.00;99.90;;;;;;6285431;22;20056;-79
2022/12/01 21:56:24;;;;;;;12.73;6.97;;;5.00;99.90;;;;;;6312939;22;20078;-79
2022/12/01 21:58:51;;;;;;;12.63;6.63;;;4.90;99.90;;;;;;6286024;22;20010;-78
2022/12/01 22:01:28;;;;;;;10.88;5.95;;;5.00;99.90;;;;;;6285968;22;19999;-78
2022/12/01 22:03:56;;;;;;;8.50;5.38;;;5.10;99.90;;;;;;6285694;22;20018;-79
2022/12/01 22:06:22;;;;;;;13.60;7.38;;;5.10;99.90;;;;;;6313125;22;20010;-81
2022/12/01 22:08:53;;;;;;;10.70;6.20;;;5.10;99.90;;;;;;6285527;22;20003;-81
2022/12/01 22:11:52;;;;;;;9.07;5.57;;;5.10;99.90;;;;;;6285891;22;20007;-83
2022/12/01 22:14:26;;;;;;;10.55;5.90;;;5.10;99.90;;;;;;6278382;22;20007;-82
2022/12/01 22:17:11;;;;;;;10.93;6.97;;;5.10;99.90;;;;;;6285634;22;20053;-81
2022/12/01 22:19:41;;;;;;;9.15;5.70;;;5.10;99.90;;;;;;6313454;22;20000;-81
2022/12/01 22:22:10;;;;;;;9.93;6.15;;;5.10;99.90;;;;;;6286013;22;20004;-81
2022/12/01 22:24:49;;;;;;;8.98;5.72;;;5.10;99.90;;;;;;6286108;22;20004;-82